Ana Sayfa
METAR-TAF:

METAR-TAF

Havaalanları :

Cheboygan County Airport

Cheboygan, Michigan, Amerika Birleşik Devletleri

Enlem: 45-39-13N, Boylam: 084-31-09W, yükseklik: 195 m

Güncel hava durumu gözlemi

Rapor saat 17:16 UTC de 22 dakika önce yapıldı.
Rüzgar güneybatıdan 7 kt
Sıcaklık 26°C
Nem 74%
Basınç 1009 hPa
Görüş mesafesi: 16.1 km
2200 ft yükseklikte parçalı bulutlu

METAR: KSLH 201716Z AUTO 22007KT 10SM SCT022 26/21 A2979 RMK AO2 T02610207

Saat: 13:38 (17:38 UTC)


TAF: eksik

4.000'den fazla havaalanı için hava durumu gözlemleri ve tahminleri (METAR ve TAF raporları).

Kullanılabilir istasyonlar harita üzerinde sarı ve kırmızı noktalarla gösterilir.

İstasyonun adını görmek için fareyi noktanın üzerinde gezdirin.

Sonrasında hava gözlem ve tahminlerini görmek için tıklayın.

Haritayı değiştirmek için: yaklaştırmak için siyah artı işaretli yeşil düğmeye ve uzaklaştırmak için de eksi işaretli düğmeye hızla tıklayın; bitişik haritalar için yeşil okları kullanın.


METAR-TAF: